sensor_id;sensor_type;location;lat;lon;timestamp;temperature;humidity
18309;DHT22;9280;50.276;18.650;2022-10-31T00:01:41;10.90;99.90
18309;DHT22;9280;50.276;18.650;2022-10-31T00:04:27;10.90;99.90
18309;DHT22;9280;50.276;18.650;2022-10-31T00:07:17;10.80;99.90
18309;DHT22;9280;50.276;18.650;2022-10-31T00:10:08;10.80;99.90
18309;DHT22;9280;50.276;18.650;2022-10-31T00:12:56;10.80;99.90
18309;DHT22;9280;50.276;18.650;2022-10-31T00:15:41;10.80;99.90
18309;DHT22;9280;50.276;18.650;2022-10-31T00:18:28;10.80;99.90
18309;DHT22;9280;50.276;18.650;2022-10-31T00:21:15;10.80;99.90
18309;DHT22;9280;50.276;18.650;2022-10-31T00:24:02;10.80;99.90
18309;DHT22;9280;50.276;18.650;2022-10-31T00:26:50;10.80;99.90
18309;DHT22;9280;50.276;18.650;2022-10-31T00:29:39;10.80;99.90
18309;DHT22;9280;50.276;18.650;2022-10-31T00:32:28;10.80;99.90
18309;DHT22;9280;50.276;18.650;2022-10-31T00:35:15;10.90;99.90
18309;DHT22;9280;50.276;18.650;2022-10-31T00:38:03;10.80;99.90
18309;DHT22;9280;50.276;18.650;2022-10-31T00:40:50;10.80;99.90
18309;DHT22;9280;50.276;18.650;2022-10-31T00:43:49;10.70;99.90
18309;DHT22;9280;50.276;18.650;2022-10-31T00:46:35;10.60;99.90
18309;DHT22;9280;50.276;18.650;2022-10-31T00:49:22;10.50;99.90
18309;DHT22;9280;50.276;18.650;2022-10-31T00:52:10;10.60;99.90
18309;DHT22;9280;50.276;18.650;2022-10-31T00:54:57;10.60;99.90
18309;DHT22;9280;50.276;18.650;2022-10-31T00:57:46;10.70;99.90
18309;DHT22;9280;50.276;18.650;2022-10-31T01:00:35;10.80;99.90
18309;DHT22;9280;50.276;18.650;2022-10-31T01:03:22;10.80;99.90
18309;DHT22;9280;50.276;18.650;2022-10-31T01:06:13;10.70;99.90
18309;DHT22;9280;50.276;18.650;2022-10-31T01:09:07;10.70;99.90
18309;DHT22;9280;50.276;18.650;2022-10-31T01:11:55;10.60;99.90
18309;DHT22;9280;50.276;18.650;2022-10-31T01:14:43;10.50;99.90
18309;DHT22;9280;50.276;18.650;2022-10-31T01:17:31;10.50;99.90
18309;DHT22;9280;50.276;18.650;2022-10-31T01:20:18;10.50;99.90
18309;DHT22;9280;50.276;18.650;2022-10-31T01:23:05;10.40;99.90
18309;DHT22;9280;50.276;18.650;2022-10-31T01:26:03;10.30;99.90
18309;DHT22;9280;50.276;18.650;2022-10-31T01:28:56;10.30;99.90
18309;DHT22;9280;50.276;18.650;2022-10-31T01:31:42;10.20;99.90
18309;DHT22;9280;50.276;18.650;2022-10-31T01:34:32;10.20;99.90
18309;DHT22;9280;50.276;18.650;2022-10-31T01:37:20;10.20;99.90
18309;DHT22;9280;50.276;18.650;2022-10-31T01:40:10;10.20;99.90
18309;DHT22;9280;50.276;18.650;2022-10-31T01:42:56;10.20;99.90
18309;DHT22;9280;50.276;18.650;2022-10-31T01:45:49;10.20;99.90
18309;DHT22;9280;50.276;18.650;2022-10-31T01:48:41;10.30;99.90
18309;DHT22;9280;50.276;18.650;2022-10-31T01:51:41;10.30;99.90
18309;DHT22;9280;50.276;18.650;2022-10-31T01:54:35;10.40;99.90
18309;DHT22;9280;50.276;18.650;2022-10-31T01:57:25;10.40;99.90
18309;DHT22;9280;50.276;18.650;2022-10-31T02:00:13;10.40;99.90
18309;DHT22;9280;50.276;18.650;2022-10-31T02:02:59;10.40;99.90
18309;DHT22;9280;50.276;18.650;2022-10-31T02:05:47;10.30;99.90
18309;DHT22;9280;50.276;18.650;2022-10-31T02:08:37;10.20;99.90
18309;DHT22;9280;50.276;18.650;2022-10-31T02:11:28;10.20;99.90
18309;DHT22;9280;50.276;18.650;2022-10-31T02:14:16;10.10;99.90
18309;DHT22;9280;50.276;18.650;2022-10-31T02:17:03;10.00;99.90
18309;DHT22;9280;50.276;18.650;2022-10-31T02:19:57;10.00;99.90
18309;DHT22;9280;50.276;18.650;2022-10-31T02:26:44;9.90;99.90
18309;DHT22;9280;50.276;18.650;2022-10-31T02:30:02;9.90;99.90
18309;DHT22;9280;50.276;18.650;2022-10-31T02:33:07;9.80;99.90
18309;DHT22;9280;50.276;18.650;2022-10-31T02:36:09;9.80;99.90
18309;DHT22;9280;50.276;18.650;2022-10-31T02:39:13;9.80;99.90
18309;DHT22;9280;50.276;18.650;2022-10-31T02:42:06;9.80;99.90
18309;DHT22;9280;50.276;18.650;2022-10-31T02:45:03;9.70;99.90
18309;DHT22;9280;50.276;18.650;2022-10-31T02:47:54;9.70;99.90
18309;DHT22;9280;50.276;18.650;2022-10-31T02:50:45;9.70;99.90
18309;DHT22;9280;50.276;18.650;2022-10-31T02:53:33;9.60;99.90
18309;DHT22;9280;50.276;18.650;2022-10-31T02:56:25;9.60;99.90
18309;DHT22;9280;50.276;18.650;2022-10-31T02:59:11;9.50;99.90
18309;DHT22;9280;50.276;18.650;2022-10-31T03:02:09;9.50;99.90
18309;DHT22;9280;50.276;18.650;2022-10-31T03:05:18;9.50;99.90
18309;DHT22;9280;50.276;18.650;2022-10-31T03:08:14;9.50;99.90
18309;DHT22;9280;50.276;18.650;2022-10-31T03:11:07;9.50;99.90
18309;DHT22;9280;50.276;18.650;2022-10-31T03:13:59;9.50;99.90
18309;DHT22;9280;50.276;18.650;2022-10-31T03:16:47;9.40;99.90
18309;DHT22;9280;50.276;18.650;2022-10-31T03:19:37;9.50;99.90
18309;DHT22;9280;50.276;18.650;2022-10-31T03:22:27;9.50;99.90
18309;DHT22;9280;50.276;18.650;2022-10-31T03:25:18;9.50;99.90
18309;DHT22;9280;50.276;18.650;2022-10-31T03:28:06;9.50;99.90
18309;DHT22;9280;50.276;18.650;2022-10-31T03:30:53;9.50;99.90
18309;DHT22;9280;50.276;18.650;2022-10-31T03:33:42;9.50;99.90
18309;DHT22;9280;50.276;18.650;2022-10-31T03:36:33;9.40;99.90
18309;DHT22;9280;50.276;18.650;2022-10-31T03:39:23;9.50;99.90
18309;DHT22;9280;50.276;18.650;2022-10-31T03:42:15;9.50;99.90
18309;DHT22;9280;50.276;18.650;2022-10-31T03:45:09;9.40;99.90
18309;DHT22;9280;50.276;18.650;2022-10-31T03:47:59;9.40;99.90
18309;DHT22;9280;50.276;18.650;2022-10-31T03:50:51;9.40;99.90
18309;DHT22;9280;50.276;18.650;2022-10-31T03:53:45;9.30;99.90
18309;DHT22;9280;50.276;18.650;2022-10-31T03:56:40;9.30;99.90
18309;DHT22;9280;50.276;18.650;2022-10-31T03:59:32;9.40;99.90
18309;DHT22;9280;50.276;18.650;2022-10-31T04:02:25;9.40;99.90
18309;DHT22;9280;50.276;18.650;2022-10-31T04:05:14;9.30;99.90
18309;DHT22;9280;50.276;18.650;2022-10-31T04:08:04;9.30;99.90
18309;DHT22;9280;50.276;18.650;2022-10-31T04:10:54;9.20;99.90
18309;DHT22;9280;50.276;18.650;2022-10-31T04:13:43;9.20;99.90
18309;DHT22;9280;50.276;18.650;2022-10-31T04:16:39;9.20;99.90
18309;DHT22;9280;50.276;18.650;2022-10-31T04:19:26;9.10;99.90
18309;DHT22;9280;50.276;18.650;2022-10-31T04:22:13;9.10;99.90
18309;DHT22;9280;50.276;18.650;2022-10-31T04:24:59;9.10;99.90
18309;DHT22;9280;50.276;18.650;2022-10-31T04:27:47;9.20;99.90
18309;DHT22;9280;50.276;18.650;2022-10-31T04:30:34;9.20;99.90
18309;DHT22;9280;50.276;18.650;2022-10-31T04:33:22;9.30;99.90
18309;DHT22;9280;50.276;18.650;2022-10-31T04:36:09;9.30;99.90
18309;DHT22;9280;50.276;18.650;2022-10-31T04:38:56;9.30;99.90
18309;DHT22;9280;50.276;18.650;2022-10-31T04:42:00;9.40;99.90
18309;DHT22;9280;50.276;18.650;2022-10-31T04:44:46;9.40;99.90
18309;DHT22;9280;50.276;18.650;2022-10-31T04:47:33;9.30;99.90
18309;DHT22;9280;50.276;18.650;2022-10-31T04:50:22;9.20;99.90
18309;DHT22;9280;50.276;18.650;2022-10-31T04:53:09;9.20;99.90
18309;DHT22;9280;50.276;18.650;2022-10-31T04:56:15;9.10;99.90
18309;DHT22;9280;50.276;18.650;2022-10-31T04:59:05;9.10;99.90
18309;DHT22;9280;50.276;18.650;2022-10-31T05:02:04;9.00;99.90
18309;DHT22;9280;50.276;18.650;2022-10-31T05:05:04;9.00;99.90
18309;DHT22;9280;50.276;18.650;2022-10-31T05:08:08;9.00;99.90
18309;DHT22;9280;50.276;18.650;2022-10-31T05:10:59;9.00;99.90
18309;DHT22;9280;50.276;18.650;2022-10-31T05:13:46;8.90;99.90
18309;DHT22;9280;50.276;18.650;2022-10-31T05:16:32;8.80;99.90
18309;DHT22;9280;50.276;18.650;2022-10-31T05:19:38;8.70;99.90
18309;DHT22;9280;50.276;18.650;2022-10-31T05:22:51;8.70;99.90
18309;DHT22;9280;50.276;18.650;2022-10-31T05:25:40;8.70;99.90
18309;DHT22;9280;50.276;18.650;2022-10-31T05:28:28;8.60;99.90
18309;DHT22;9280;50.276;18.650;2022-10-31T05:31:16;8.60;99.90
18309;DHT22;9280;50.276;18.650;2022-10-31T05:34:02;8.70;99.90
18309;DHT22;9280;50.276;18.650;2022-10-31T05:37:03;8.70;99.90
18309;DHT22;9280;50.276;18.650;2022-10-31T05:39:51;8.80;99.90
18309;DHT22;9280;50.276;18.650;2022-10-31T05:42:40;8.80;99.90
18309;DHT22;9280;50.276;18.650;2022-10-31T05:45:28;8.80;99.90
18309;DHT22;9280;50.276;18.650;2022-10-31T05:48:18;8.80;99.90
18309;DHT22;9280;50.276;18.650;2022-10-31T05:51:23;8.80;99.90
18309;DHT22;9280;50.276;18.650;2022-10-31T05:54:10;8.90;99.90
18309;DHT22;9280;50.276;18.650;2022-10-31T05:56:58;8.90;99.90
18309;DHT22;9280;50.276;18.650;2022-10-31T05:59:45;8.90;99.90
18309;DHT22;9280;50.276;18.650;2022-10-31T06:02:32;8.90;99.90
18309;DHT22;9280;50.276;18.650;2022-10-31T06:05:34;8.90;99.90
18309;DHT22;9280;50.276;18.650;2022-10-31T06:08:21;8.90;99.90
18309;DHT22;9280;50.276;18.650;2022-10-31T06:11:08;8.90;99.90
18309;DHT22;9280;50.276;18.650;2022-10-31T06:14:23;8.90;99.90
18309;DHT22;9280;50.276;18.650;2022-10-31T06:17:15;8.90;99.90
18309;DHT22;9280;50.276;18.650;2022-10-31T06:20:07;8.90;99.90
18309;DHT22;9280;50.276;18.650;2022-10-31T06:23:00;8.90;99.90
18309;DHT22;9280;50.276;18.650;2022-10-31T06:25:49;8.90;99.90
18309;DHT22;9280;50.276;18.650;2022-10-31T06:28:35;8.90;99.90
18309;DHT22;9280;50.276;18.650;2022-10-31T06:31:35;8.90;99.90
18309;DHT22;9280;50.276;18.650;2022-10-31T06:34:25;8.90;99.90
18309;DHT22;9280;50.276;18.650;2022-10-31T06:37:14;8.90;99.90
18309;DHT22;9280;50.276;18.650;2022-10-31T06:40:05;8.80;99.90
18309;DHT22;9280;50.276;18.650;2022-10-31T06:43:09;8.80;99.90
18309;DHT22;9280;50.276;18.650;2022-10-31T06:46:02;8.80;99.90
18309;DHT22;9280;50.276;18.650;2022-10-31T06:48:53;8.80;99.90
18309;DHT22;9280;50.276;18.650;2022-10-31T06:51:57;8.80;99.90
18309;DHT22;9280;50.276;18.650;2022-10-31T06:54:48;8.90;99.90
18309;DHT22;9280;50.276;18.650;2022-10-31T06:57:34;8.90;99.90
18309;DHT22;9280;50.276;18.650;2022-10-31T07:00:21;9.00;99.90
18309;DHT22;9280;50.276;18.650;2022-10-31T07:03:15;9.00;99.90
18309;DHT22;9280;50.276;18.650;2022-10-31T07:06:02;9.00;99.90
18309;DHT22;9280;50.276;18.650;2022-10-31T07:08:52;9.10;99.90
18309;DHT22;9280;50.276;18.650;2022-10-31T07:11:38;9.20;99.90
18309;DHT22;9280;50.276;18.650;2022-10-31T07:14:24;9.20;99.90
18309;DHT22;9280;50.276;18.650;2022-10-31T07:17:11;9.30;99.90
18309;DHT22;9280;50.276;18.650;2022-10-31T07:20:00;9.30;99.90
18309;DHT22;9280;50.276;18.650;2022-10-31T07:22:47;9.40;99.90
18309;DHT22;9280;50.276;18.650;2022-10-31T07:25:35;9.50;99.90
18309;DHT22;9280;50.276;18.650;2022-10-31T07:28:26;9.50;99.90
18309;DHT22;9280;50.276;18.650;2022-10-31T07:31:12;9.60;99.90
18309;DHT22;9280;50.276;18.650;2022-10-31T07:33:58;9.80;99.90
18309;DHT22;9280;50.276;18.650;2022-10-31T07:36:44;9.90;99.90
18309;DHT22;9280;50.276;18.650;2022-10-31T07:39:31;9.90;99.90
18309;DHT22;9280;50.276;18.650;2022-10-31T07:42:18;9.90;99.90
18309;DHT22;9280;50.276;18.650;2022-10-31T07:45:06;10.00;99.90
18309;DHT22;9280;50.276;18.650;2022-10-31T07:48:25;10.10;99.90
18309;DHT22;9280;50.276;18.650;2022-10-31T07:51:30;10.20;99.90
18309;DHT22;9280;50.276;18.650;2022-10-31T07:54:21;10.40;99.90
18309;DHT22;9280;50.276;18.650;2022-10-31T07:57:08;10.50;99.90
18309;DHT22;9280;50.276;18.650;2022-10-31T07:59:57;10.50;99.90
18309;DHT22;9280;50.276;18.650;2022-10-31T08:02:43;10.70;99.90
18309;DHT22;9280;50.276;18.650;2022-10-31T08:05:48;10.70;99.90
18309;DHT22;9280;50.276;18.650;2022-10-31T08:08:49;10.90;99.90
18309;DHT22;9280;50.276;18.650;2022-10-31T08:11:37;10.90;99.90
18309;DHT22;9280;50.276;18.650;2022-10-31T08:14:23;11.00;99.90
18309;DHT22;9280;50.276;18.650;2022-10-31T08:17:11;11.10;99.90
18309;DHT22;9280;50.276;18.650;2022-10-31T08:20:09;11.30;99.90
18309;DHT22;9280;50.276;18.650;2022-10-31T08:23:03;11.30;99.90
18309;DHT22;9280;50.276;18.650;2022-10-31T08:25:52;11.50;99.90
18309;DHT22;9280;50.276;18.650;2022-10-31T08:28:38;11.60;99.90
18309;DHT22;9280;50.276;18.650;2022-10-31T08:31:24;11.70;99.90
18309;DHT22;9280;50.276;18.650;2022-10-31T08:34:32;11.80;99.90
18309;DHT22;9280;50.276;18.650;2022-10-31T08:37:36;12.00;99.90
18309;DHT22;9280;50.276;18.650;2022-10-31T08:40:24;12.10;99.90
18309;DHT22;9280;50.276;18.650;2022-10-31T08:43:12;12.30;99.90
18309;DHT22;9280;50.276;18.650;2022-10-31T08:45:59;12.40;99.90
18309;DHT22;9280;50.276;18.650;2022-10-31T08:48:47;12.60;99.90
18309;DHT22;9280;50.276;18.650;2022-10-31T08:51:36;12.70;99.90
18309;DHT22;9280;50.276;18.650;2022-10-31T08:54:22;12.90;99.90
18309;DHT22;9280;50.276;18.650;2022-10-31T08:57:14;13.00;99.90
18309;DHT22;9280;50.276;18.650;2022-10-31T09:00:03;13.10;99.90
18309;DHT22;9280;50.276;18.650;2022-10-31T09:03:10;13.20;99.90
18309;DHT22;9280;50.276;18.650;2022-10-31T09:05:58;13.40;99.90
18309;DHT22;9280;50.276;18.650;2022-10-31T09:08:47;13.50;99.90
18309;DHT22;9280;50.276;18.650;2022-10-31T09:11:34;13.60;99.90
18309;DHT22;9280;50.276;18.650;2022-10-31T09:14:29;13.70;99.90
18309;DHT22;9280;50.276;18.650;2022-10-31T09:17:46;13.90;99.90
18309;DHT22;9280;50.276;18.650;2022-10-31T09:20:41;14.00;99.90
18309;DHT22;9280;50.276;18.650;2022-10-31T09:23:28;14.10;99.90
18309;DHT22;9280;50.276;18.650;2022-10-31T09:26:15;14.20;99.90
18309;DHT22;9280;50.276;18.650;2022-10-31T09:29:14;14.40;99.90
18309;DHT22;9280;50.276;18.650;2022-10-31T09:32:01;14.50;99.90
18309;DHT22;9280;50.276;18.650;2022-10-31T09:34:48;14.60;99.90
18309;DHT22;9280;50.276;18.650;2022-10-31T09:37:38;14.70;99.90
18309;DHT22;9280;50.276;18.650;2022-10-31T09:40:29;14.90;99.90
18309;DHT22;9280;50.276;18.650;2022-10-31T09:43:25;15.00;99.90
18309;DHT22;9280;50.276;18.650;2022-10-31T09:46:21;15.10;99.90
18309;DHT22;9280;50.276;18.650;2022-10-31T09:49:37;15.20;99.90
18309;DHT22;9280;50.276;18.650;2022-10-31T09:52:29;15.30;99.90
18309;DHT22;9280;50.276;18.650;2022-10-31T09:55:21;15.50;99.90
18309;DHT22;9280;50.276;18.650;2022-10-31T09:58:14;15.60;99.90
18309;DHT22;9280;50.276;18.650;2022-10-31T10:01:03;15.70;99.90
18309;DHT22;9280;50.276;18.650;2022-10-31T10:03:54;15.70;99.90
18309;DHT22;9280;50.276;18.650;2022-10-31T10:07:19;15.90;99.90
18309;DHT22;9280;50.276;18.650;2022-10-31T10:10:49;16.10;99.90
18309;DHT22;9280;50.276;18.650;2022-10-31T10:14:08;16.20;99.90
18309;DHT22;9280;50.276;18.650;2022-10-31T10:17:11;16.40;99.90
18309;DHT22;9280;50.276;18.650;2022-10-31T10:20:20;16.50;99.90
18309;DHT22;9280;50.276;18.650;2022-10-31T10:23:22;16.60;99.90
18309;DHT22;9280;50.276;18.650;2022-10-31T10:26:15;16.70;99.90
18309;DHT22;9280;50.276;18.650;2022-10-31T10:29:17;16.80;99.90
18309;DHT22;9280;50.276;18.650;2022-10-31T10:32:10;16.80;99.90
18309;DHT22;9280;50.276;18.650;2022-10-31T10:35:02;16.90;99.90
18309;DHT22;9280;50.276;18.650;2022-10-31T10:37:51;17.00;99.90
18309;DHT22;9280;50.276;18.650;2022-10-31T10:40:38;17.00;99.90
18309;DHT22;9280;50.276;18.650;2022-10-31T10:43:30;17.10;99.90
18309;DHT22;9280;50.276;18.650;2022-10-31T10:46:19;17.20;99.90
18309;DHT22;9280;50.276;18.650;2022-10-31T10:49:31;17.40;99.90
18309;DHT22;9280;50.276;18.650;2022-10-31T10:52:26;17.50;99.90
18309;DHT22;9280;50.276;18.650;2022-10-31T10:55:18;17.60;99.90
18309;DHT22;9280;50.276;18.650;2022-10-31T10:58:10;17.70;99.90
18309;DHT22;9280;50.276;18.650;2022-10-31T11:00:56;17.80;99.90
18309;DHT22;9280;50.276;18.650;2022-10-31T11:03:42;17.90;99.90
18309;DHT22;9280;50.276;18.650;2022-10-31T11:06:29;18.10;99.90
18309;DHT22;9280;50.276;18.650;2022-10-31T11:09:16;18.20;99.90
18309;DHT22;9280;50.276;18.650;2022-10-31T11:12:07;18.30;99.90
18309;DHT22;9280;50.276;18.650;2022-10-31T11:14:56;18.40;99.90
18309;DHT22;9280;50.276;18.650;2022-10-31T11:17:48;18.50;99.90
18309;DHT22;9280;50.276;18.650;2022-10-31T11:20:35;18.60;99.90
18309;DHT22;9280;50.276;18.650;2022-10-31T11:23:25;18.70;99.90
18309;DHT22;9280;50.276;18.650;2022-10-31T11:26:20;18.80;99.90
18309;DHT22;9280;50.276;18.650;2022-10-31T11:29:14;18.90;99.90
18309;DHT22;9280;50.276;18.650;2022-10-31T11:32:00;19.00;99.90
18309;DHT22;9280;50.276;18.650;2022-10-31T11:34:48;19.20;99.90
18309;DHT22;9280;50.276;18.650;2022-10-31T11:37:41;19.30;99.90
18309;DHT22;9280;50.276;18.650;2022-10-31T11:40:29;19.60;99.90
18309;DHT22;9280;50.276;18.650;2022-10-31T11:43:17;19.70;99.90
18309;DHT22;9280;50.276;18.650;2022-10-31T11:46:09;19.90;99.90
18309;DHT22;9280;50.276;18.650;2022-10-31T11:48:56;20.10;99.90
18309;DHT22;9280;50.276;18.650;2022-10-31T11:51:46;20.30;99.90
18309;DHT22;9280;50.276;18.650;2022-10-31T11:54:38;20.60;99.90
18309;DHT22;9280;50.276;18.650;2022-10-31T11:57:30;21.70;99.90
18309;DHT22;9280;50.276;18.650;2022-10-31T12:00:22;25.50;97.60
18309;DHT22;9280;50.276;18.650;2022-10-31T12:03:25;29.30;71.20
18309;DHT22;9280;50.276;18.650;2022-10-31T12:06:15;31.60;50.60
18309;DHT22;9280;50.276;18.650;2022-10-31T12:09:15;33.70;43.80
18309;DHT22;9280;50.276;18.650;2022-10-31T12:12:26;35.70;37.80
18309;DHT22;9280;50.276;18.650;2022-10-31T12:15:35;37.60;31.50
18309;DHT22;9280;50.276;18.650;2022-10-31T12:18:35;39.30;28.20
18309;DHT22;9280;50.276;18.650;2022-10-31T12:21:44;40.60;26.50
18309;DHT22;9280;50.276;18.650;2022-10-31T12:28:13;42.00;24.30
18309;DHT22;9280;50.276;18.650;2022-10-31T12:31:13;42.90;22.60
18309;DHT22;9280;50.276;18.650;2022-10-31T12:34:28;43.30;22.50
18309;DHT22;9280;50.276;18.650;2022-10-31T12:37:29;44.00;22.10
18309;DHT22;9280;50.276;18.650;2022-10-31T12:40:29;44.40;20.90
18309;DHT22;9280;50.276;18.650;2022-10-31T12:43:32;44.10;20.90
18309;DHT22;9280;50.276;18.650;2022-10-31T12:46:29;44.20;20.30
18309;DHT22;9280;50.276;18.650;2022-10-31T12:49:35;44.50;20.60
18309;DHT22;9280;50.276;18.650;2022-10-31T12:52:40;44.50;20.30
18309;DHT22;9280;50.276;18.650;2022-10-31T12:55:41;44.30;20.00
18309;DHT22;9280;50.276;18.650;2022-10-31T12:58:33;44.60;20.00
18309;DHT22;9280;50.276;18.650;2022-10-31T13:01:24;44.30;20.30
18309;DHT22;9280;50.276;18.650;2022-10-31T13:04:17;44.00;20.20
18309;DHT22;9280;50.276;18.650;2022-10-31T13:07:07;43.70;20.00
18309;DHT22;9280;50.276;18.650;2022-10-31T13:10:00;43.90;19.80
18309;DHT22;9280;50.276;18.650;2022-10-31T13:12:50;44.00;19.50
18309;DHT22;9280;50.276;18.650;2022-10-31T13:15:47;43.70;19.70
18309;DHT22;9280;50.276;18.650;2022-10-31T13:18:38;43.50;20.00
18309;DHT22;9280;50.276;18.650;2022-10-31T13:21:30;43.60;19.90
18309;DHT22;9280;50.276;18.650;2022-10-31T13:24:21;43.50;19.60
18309;DHT22;9280;50.276;18.650;2022-10-31T13:27:13;42.90;20.40
18309;DHT22;9280;50.276;18.650;2022-10-31T13:30:02;42.90;19.90
18309;DHT22;9280;50.276;18.650;2022-10-31T13:32:52;43.00;20.10
18309;DHT22;9280;50.276;18.650;2022-10-31T13:35:43;43.10;20.20
18309;DHT22;9280;50.276;18.650;2022-10-31T13:38:36;42.80;20.20
18309;DHT22;9280;50.276;18.650;2022-10-31T13:41:35;42.50;20.50
18309;DHT22;9280;50.276;18.650;2022-10-31T13:44:26;42.30;20.40
18309;DHT22;9280;50.276;18.650;2022-10-31T13:47:22;41.60;21.30
18309;DHT22;9280;50.276;18.650;2022-10-31T13:50:20;41.30;21.50
18309;DHT22;9280;50.276;18.650;2022-10-31T13:53:18;41.00;21.90
18309;DHT22;9280;50.276;18.650;2022-10-31T13:56:20;41.20;21.60
18309;DHT22;9280;50.276;18.650;2022-10-31T13:59:18;40.30;22.00
18309;DHT22;9280;50.276;18.650;2022-10-31T14:02:14;39.20;22.80
18309;DHT22;9280;50.276;18.650;2022-10-31T14:05:03;38.60;23.80
18309;DHT22;9280;50.276;18.650;2022-10-31T14:07:50;38.60;23.80
18309;DHT22;9280;50.276;18.650;2022-10-31T14:10:38;38.40;23.70
18309;DHT22;9280;50.276;18.650;2022-10-31T14:13:35;38.30;23.90
18309;DHT22;9280;50.276;18.650;2022-10-31T14:16:25;38.10;23.80
18309;DHT22;9280;50.276;18.650;2022-10-31T14:19:17;37.50;24.30
18309;DHT22;9280;50.276;18.650;2022-10-31T14:22:04;36.50;25.30
18309;DHT22;9280;50.276;18.650;2022-10-31T14:25:26;36.00;25.50
18309;DHT22;9280;50.276;18.650;2022-10-31T14:28:21;35.70;26.00
18309;DHT22;9280;50.276;18.650;2022-10-31T14:31:34;35.00;26.90
18309;DHT22;9280;50.276;18.650;2022-10-31T14:34:24;34.50;27.50
18309;DHT22;9280;50.276;18.650;2022-10-31T14:37:27;33.50;28.30
18309;DHT22;9280;50.276;18.650;2022-10-31T14:40:33;32.90;29.00
18309;DHT22;9280;50.276;18.650;2022-10-31T14:44:04;32.40;29.40
18309;DHT22;9280;50.276;18.650;2022-10-31T15:17:15;22.70;46.50
18309;DHT22;9280;50.276;18.650;2022-10-31T15:20:11;21.70;49.20
18309;DHT22;9280;50.276;18.650;2022-10-31T15:23:17;21.00;51.50
18309;DHT22;9280;50.276;18.650;2022-10-31T15:26:22;20.40;53.90
18309;DHT22;9280;50.276;18.650;2022-10-31T15:29:15;19.80;56.50
18309;DHT22;9280;50.276;18.650;2022-10-31T15:35:29;19.00;61.10
18309;DHT22;9280;50.276;18.650;2022-10-31T15:38:17;18.60;65.10
18309;DHT22;9280;50.276;18.650;2022-10-31T15:41:04;18.30;69.70
18309;DHT22;9280;50.276;18.650;2022-10-31T15:43:53;18.00;75.50
18309;DHT22;9280;50.276;18.650;2022-10-31T15:46:41;17.90;82.10
18309;DHT22;9280;50.276;18.650;2022-10-31T15:49:35;17.70;89.60
18309;DHT22;9280;50.276;18.650;2022-10-31T15:52:42;17.50;93.40
18309;DHT22;9280;50.276;18.650;2022-10-31T15:55:46;17.30;96.70
18309;DHT22;9280;50.276;18.650;2022-10-31T15:58:35;17.10;99.90
18309;DHT22;9280;50.276;18.650;2022-10-31T16:01:27;17.00;99.90
18309;DHT22;9280;50.276;18.650;2022-10-31T16:04:28;16.90;99.90
18309;DHT22;9280;50.276;18.650;2022-10-31T16:07:17;16.70;99.90
18309;DHT22;9280;50.276;18.650;2022-10-31T16:10:23;16.60;99.90
18309;DHT22;9280;50.276;18.650;2022-10-31T16:13:11;16.50;99.90
18309;DHT22;9280;50.276;18.650;2022-10-31T16:16:15;16.40;99.90
18309;DHT22;9280;50.276;18.650;2022-10-31T16:19:04;16.30;99.90
18309;DHT22;9280;50.276;18.650;2022-10-31T16:21:55;16.30;99.90
18309;DHT22;9280;50.276;18.650;2022-10-31T16:24:59;16.20;99.90
18309;DHT22;9280;50.276;18.650;2022-10-31T17:19:05;15.20;99.90
18309;DHT22;9280;50.276;18.650;2022-10-31T17:21:52;15.20;99.90
18309;DHT22;9280;50.276;18.650;2022-10-31T17:24:56;15.10;99.90
18309;DHT22;9280;50.276;18.650;2022-10-31T17:27:42;15.10;99.90
18309;DHT22;9280;50.276;18.650;2022-10-31T17:30:29;15.00;99.90
18309;DHT22;9280;50.276;18.650;2022-10-31T17:33:16;15.00;99.90
18309;DHT22;9280;50.276;18.650;2022-10-31T17:36:05;15.00;99.90
18309;DHT22;9280;50.276;18.650;2022-10-31T17:38:51;15.00;99.90
18309;DHT22;9280;50.276;18.650;2022-10-31T17:41:37;15.00;99.90
18309;DHT22;9280;50.276;18.650;2022-10-31T17:44:23;14.90;99.90
18309;DHT22;9280;50.276;18.650;2022-10-31T17:47:09;14.80;99.90
18309;DHT22;9280;50.276;18.650;2022-10-31T17:49:56;14.80;99.90
18309;DHT22;9280;50.276;18.650;2022-10-31T17:52:43;14.80;99.90
18309;DHT22;9280;50.276;18.650;2022-10-31T17:55:30;14.60;99.90
18309;DHT22;9280;50.276;18.650;2022-10-31T17:58:16;14.50;99.90
18309;DHT22;9280;50.276;18.650;2022-10-31T18:01:07;14.40;99.90
18309;DHT22;9280;50.276;18.650;2022-10-31T18:03:54;14.30;99.90
18309;DHT22;9280;50.276;18.650;2022-10-31T18:06:41;14.20;99.90
18309;DHT22;9280;50.276;18.650;2022-10-31T18:09:29;14.20;99.90
18309;DHT22;9280;50.276;18.650;2022-10-31T18:12:16;14.20;99.90
18309;DHT22;9280;50.276;18.650;2022-10-31T18:15:03;14.20;99.90
18309;DHT22;9280;50.276;18.650;2022-10-31T18:17:50;14.10;99.90
18309;DHT22;9280;50.276;18.650;2022-10-31T18:20:35;14.00;99.90
18309;DHT22;9280;50.276;18.650;2022-10-31T18:23:21;13.80;99.90
18309;DHT22;9280;50.276;18.650;2022-10-31T18:26:09;13.80;99.90
18309;DHT22;9280;50.276;18.650;2022-10-31T18:28:55;13.70;99.90
18309;DHT22;9280;50.276;18.650;2022-10-31T18:31:41;13.70;99.90
18309;DHT22;9280;50.276;18.650;2022-10-31T18:34:32;13.60;99.90
18309;DHT22;9280;50.276;18.650;2022-10-31T18:37:18;13.60;99.90
18309;DHT22;9280;50.276;18.650;2022-10-31T18:40:05;13.50;99.90
18309;DHT22;9280;50.276;18.650;2022-10-31T18:42:53;13.50;99.90
18309;DHT22;9280;50.276;18.650;2022-10-31T18:45:39;13.40;99.90
18309;DHT22;9280;50.276;18.650;2022-10-31T18:48:25;13.40;99.90
18309;DHT22;9280;50.276;18.650;2022-10-31T18:51:15;13.30;99.90
18309;DHT22;9280;50.276;18.650;2022-10-31T18:54:02;13.30;99.90
18309;DHT22;9280;50.276;18.650;2022-10-31T18:56:48;13.30;99.90
18309;DHT22;9280;50.276;18.650;2022-10-31T18:59:37;13.30;99.90
18309;DHT22;9280;50.276;18.650;2022-10-31T19:02:23;13.30;99.90
18309;DHT22;9280;50.276;18.650;2022-10-31T19:05:09;13.20;99.90
18309;DHT22;9280;50.276;18.650;2022-10-31T19:07:58;13.20;99.90
18309;DHT22;9280;50.276;18.650;2022-10-31T19:10:45;13.20;99.90
18309;DHT22;9280;50.276;18.650;2022-10-31T19:13:31;13.10;99.90
18309;DHT22;9280;50.276;18.650;2022-10-31T19:16:19;13.00;99.90
18309;DHT22;9280;50.276;18.650;2022-10-31T19:19:06;12.90;99.90
18309;DHT22;9280;50.276;18.650;2022-10-31T19:21:52;13.20;99.90
18309;DHT22;9280;50.276;18.650;2022-10-31T19:24:39;13.30;99.90
18309;DHT22;9280;50.276;18.650;2022-10-31T19:27:25;13.50;99.90
18309;DHT22;9280;50.276;18.650;2022-10-31T19:30:13;13.80;99.90
18309;DHT22;9280;50.276;18.650;2022-10-31T20:02:53;12.30;99.90
18309;DHT22;9280;50.276;18.650;2022-10-31T20:05:40;12.10;99.90
18309;DHT22;9280;50.276;18.650;2022-10-31T20:08:27;12.00;99.90
18309;DHT22;9280;50.276;18.650;2022-10-31T20:11:14;12.00;99.90
18309;DHT22;9280;50.276;18.650;2022-10-31T20:14:00;12.10;99.90
18309;DHT22;9280;50.276;18.650;2022-10-31T20:16:46;12.10;99.90